Time;durP1;ratioP1;P1;durP2;ratioP2;P2;SDS_P1;SDS_P2;PMS_P1;PMS_P2;Temp;Humidity;BMP_temperature;BMP_pressure;BME280_temperature;BME280_humidity;BME280_pressure;Samples;Min_cycle;Max_cycle;Signal;HPM_P1;HPM_P2
2023/01/10 00:00:25;;;;;;;0.40;0.40;;;;;;;4.15;100.00;95987.00;5041952;28;20206;-82
2023/01/10 00:02:52;;;;;;;0.30;0.30;;;;;;;4.12;100.00;96006.94;5048321;28;20206;-82
2023/01/10 00:05:20;;;;;;;0.50;0.40;;;;;;;4.11;100.00;96009.78;5044266;28;20256;-80
2023/01/10 00:07:47;;;;;;;0.30;0.30;;;;;;;4.03;100.00;95993.94;5040113;28;20238;-80
2023/01/10 00:10:14;;;;;;;0.30;0.30;;;;;;;4.10;100.00;95992.13;5048744;28;20226;-80
2023/01/10 00:15:27;;;;;;;0.40;0.40;;;;;;;4.13;100.00;96018.44;5044644;28;20364;-80
2023/01/10 00:17:54;;;;;;;0.43;0.43;;;;;;;4.08;100.00;96010.22;5043540;28;20229;-80
2023/01/10 00:20:22;;;;;;;0.40;0.40;;;;;;;4.15;100.00;96021.75;5039656;28;20195;-79
2023/01/10 00:22:50;;;;;;;0.40;0.40;;;;;;;4.17;100.00;96014.34;5044863;28;20202;-80
2023/01/10 00:25:18;;;;;;;0.77;0.40;;;;;;;4.15;100.00;96025.25;5045677;28;20320;-80
2023/01/10 00:27:47;;;;;;;0.40;0.40;;;;;;;4.22;100.00;96024.44;5040221;28;20194;-80
2023/01/10 00:30:14;;;;;;;0.47;0.47;;;;;;;4.19;100.00;96031.00;5042950;28;20222;-82
2023/01/10 00:32:44;;;;;;;0.40;0.40;;;;;;;4.25;100.00;96038.25;5040594;28;20206;-82
2023/01/10 00:35:12;;;;;;;0.30;0.30;;;;;;;4.40;100.00;96054.13;5037325;28;20292;-82
2023/01/10 00:37:40;;;;;;;0.50;0.50;;;;;;;4.48;100.00;96038.75;5046981;28;20202;-82
2023/01/10 00:40:08;;;;;;;0.40;0.40;;;;;;;4.62;100.00;96061.00;5042378;28;20202;-82
2023/01/10 00:45:21;;;;;;;0.40;0.40;;;;;;;4.65;100.00;96073.16;5047424;28;20262;-82
2023/01/10 00:47:50;;;;;;;1.30;0.40;;;;;;;4.68;100.00;96073.56;5044399;28;20209;-80
2023/01/10 00:50:18;;;;;;;0.37;0.37;;;;;;;4.82;100.00;96079.81;5043872;28;20313;-80
2023/01/10 00:52:45;;;;;;;0.50;0.50;;;;;;;4.91;100.00;96065.22;5037114;28;20207;-82
2023/01/10 00:55:12;;;;;;;0.60;0.60;;;;;;;5.00;100.00;96068.53;5041475;28;20256;-82
2023/01/10 00:57:40;;;;;;;0.40;0.40;;;;;;;5.03;100.00;96071.63;5039123;28;20210;-82
2023/01/10 01:00:09;;;;;;;0.40;0.40;;;;;;;5.05;100.00;96093.66;5050375;28;20198;-82
2023/01/10 01:02:36;;;;;;;0.40;0.40;;;;;;;5.09;100.00;96115.50;5043296;28;20207;-82
2023/01/10 01:05:05;;;;;;;1.20;0.50;;;;;;;4.93;100.00;96103.31;5043701;28;20210;-82
2023/01/10 01:07:32;;;;;;;0.77;0.70;;;;;;;4.94;100.00;96078.19;5035633;28;20203;-82
2023/01/10 01:12:44;;;;;;;0.50;0.40;;;;;;;4.97;100.00;96107.22;5049049;28;20240;-82
2023/01/10 01:15:11;;;;;;;0.40;0.40;;;;;;;4.80;100.00;96108.59;5039640;28;20209;-80
2023/01/10 01:17:39;;;;;;;0.47;0.47;;;;;;;4.81;100.00;96110.25;5041291;28;20202;-80
2023/01/10 01:20:11;;;;;;;0.47;0.43;;;;;;;4.83;100.00;96127.75;5040614;28;20210;-80
2023/01/10 01:22:38;;;;;;;0.60;0.60;;;;;;;4.90;100.00;96159.88;5045746;28;20226;-80
2023/01/10 01:25:09;;;;;;;0.40;0.40;;;;;;;4.90;100.00;96149.19;5039385;28;20241;-80
2023/01/10 01:27:37;;;;;;;0.40;0.40;;;;;;;4.85;100.00;96154.28;5044088;28;20317;-80
2023/01/10 01:30:05;;;;;;;0.40;0.40;;;;;;;4.86;100.00;96155.94;5039755;28;20250;-80
2023/01/10 01:32:32;;;;;;;1.80;0.60;;;;;;;4.85;100.00;96163.16;5039656;28;20233;-80
2023/01/10 01:34:59;;;;;;;0.93;0.50;;;;;;;4.84;100.00;96163.38;5049542;28;20202;-80
2023/01/10 01:37:27;;;;;;;1.60;0.43;;;;;;;4.94;100.00;96183.34;5034212;28;20217;-80
2023/01/10 01:39:54;;;;;;;0.50;0.50;;;;;;;4.92;100.00;96206.00;5049798;28;20186;-80
2023/01/10 01:42:25;;;;;;;1.00;0.60;;;;;;;4.76;100.00;96206.34;5040515;28;20211;-80
2023/01/10 01:45:31;;;;;;;0.63;0.63;;;;;;;4.80;100.00;96211.06;5044116;28;20199;-80
2023/01/10 01:48:04;;;;;;;0.43;0.43;;;;;;;4.76;100.00;96217.03;5042107;28;20241;-80
2023/01/10 01:50:38;;;;;;;0.43;0.43;;;;;;;4.92;100.00;96248.81;5048648;28;20226;-80
2023/01/10 01:53:11;;;;;;;2.63;0.60;;;;;;;4.89;100.00;96243.84;5046752;28;20198;-80
2023/01/10 01:55:39;;;;;;;0.70;0.60;;;;;;;4.93;100.00;96250.47;5048853;28;20218;-80
2023/01/10 01:58:12;;;;;;;0.50;0.50;;;;;;;4.87;100.00;96238.69;5047147;28;20195;-80
2023/01/10 02:00:39;;;;;;;0.50;0.50;;;;;;;4.79;100.00;96272.78;5049235;28;20212;-80
2023/01/10 02:03:08;;;;;;;0.60;0.60;;;;;;;4.68;100.00;96265.34;5048223;28;20198;-80
2023/01/10 02:05:40;;;;;;;0.53;0.53;;;;;;;4.62;100.00;96279.47;5050992;28;20260;-80
2023/01/10 02:08:08;;;;;;;0.40;0.40;;;;;;;4.54;100.00;96278.59;5048817;28;20289;-80
2023/01/10 02:10:41;;;;;;;0.57;0.50;;;;;;;4.47;100.00;96288.41;5049057;28;20226;-80
2023/01/10 02:13:11;;;;;;;0.40;0.40;;;;;;;4.45;100.00;96293.13;5048508;28;20277;-80
2023/01/10 02:15:38;;;;;;;0.40;0.40;;;;;;;4.41;100.00;96312.44;5059298;28;20210;-80
2023/01/10 02:18:09;;;;;;;0.43;0.33;;;;;;;4.21;100.00;96298.88;5048438;28;20199;-80
2023/01/10 02:20:45;;;;;;;0.40;0.40;;;;;;;4.20;100.00;96313.25;5047785;28;20190;-80
2023/01/10 02:23:48;;;;;;;0.50;0.50;;;;;;;4.26;100.00;96307.13;5043926;28;20315;-81
2023/01/10 02:26:39;;;;;;;0.40;0.40;;;;;;;4.33;100.00;96334.78;4988839;28;20216;-80
2023/01/10 02:29:21;;;;;;;0.60;0.60;;;;;;;4.43;100.00;96345.94;5040247;28;20206;-80
2023/01/10 02:32:11;;;;;;;0.87;0.60;;;;;;;4.45;100.00;96333.22;5036710;28;20298;-80
2023/01/10 02:34:50;;;;;;;0.80;0.80;;;;;;;4.47;100.00;96333.88;5035283;28;20234;-80
2023/01/10 02:37:25;;;;;;;2.40;0.80;;;;;;;4.51;100.00;96327.09;5048990;28;20206;-80
2023/01/10 02:39:59;;;;;;;3.03;0.77;;;;;;;4.54;100.00;96348.13;5048522;28;20197;-80
2023/01/10 02:42:34;;;;;;;1.07;0.70;;;;;;;4.50;100.00;96346.88;5046307;28;20214;-80
2023/01/10 02:45:09;;;;;;;1.37;0.70;;;;;;;4.65;100.00;96352.13;5038284;28;20305;-80
2023/01/10 02:47:38;;;;;;;2.07;0.90;;;;;;;4.81;100.00;96333.09;5042531;28;20211;-80
2023/01/10 02:50:43;;;;;;;0.97;0.70;;;;;;;4.97;100.00;96366.78;5064621;28;20268;-80
2023/01/10 02:53:13;;;;;;;1.73;1.20;;;;;;;5.06;100.00;96367.44;5018463;28;20211;-80
2023/01/10 02:55:58;;;;;;;2.97;0.93;;;;;;;5.07;100.00;96374.47;5064572;28;20233;-80
2023/01/10 02:58:40;;;;;;;2.30;0.80;;;;;;;5.06;100.00;96362.91;5042762;28;20199;-80
2023/01/10 03:01:18;;;;;;;1.50;0.80;;;;;;;5.16;100.00;96368.75;5047727;28;20195;-80
2023/01/10 03:03:55;;;;;;;1.67;0.80;;;;;;;5.23;100.00;96383.00;5037875;28;20343;-80
2023/01/10 03:06:30;;;;;;;1.67;0.80;;;;;;;5.25;99.99;96390.84;5042840;28;20273;-80
2023/01/10 03:09:07;;;;;;;4.03;0.87;;;;;;;5.14;100.00;96364.63;5041213;28;20199;-82
2023/01/10 03:11:42;;;;;;;2.80;0.70;;;;;;;5.12;100.00;96386.22;5043063;28;20246;-82
2023/01/10 03:14:15;;;;;;;2.00;0.80;;;;;;;5.12;100.00;96383.53;5048202;28;20208;-82
2023/01/10 03:16:49;;;;;;;1.27;0.80;;;;;;;5.20;99.69;96390.59;5042586;28;20206;-82
2023/01/10 03:19:21;;;;;;;3.03;0.80;;;;;;;5.22;100.00;96397.41;5045543;28;20202;-82
2023/01/10 03:21:52;;;;;;;7.77;0.87;;;;;;;5.14;100.00;96373.47;5045915;28;20210;-80
2023/01/10 03:24:24;;;;;;;0.93;0.67;;;;;;;5.27;99.98;96396.84;5047944;28;20230;-80
2023/01/10 03:26:57;;;;;;;1.63;0.70;;;;;;;5.31;100.00;96414.16;5049785;28;20296;-80
2023/01/10 03:29:32;;;;;;;1.50;0.73;;;;;;;5.25;100.00;96426.47;5038005;28;20205;-80
2023/01/10 03:32:04;;;;;;;2.47;0.70;;;;;;;5.08;100.00;96419.75;5042711;28;20218;-80
2023/01/10 03:34:34;;;;;;;1.17;0.80;;;;;;;5.02;100.00;96422.41;5042334;28;20237;-80
2023/01/10 03:37:09;;;;;;;2.37;0.77;;;;;;;5.00;100.00;96435.97;5045770;28;20305;-80
2023/01/10 03:39:44;;;;;;;0.90;0.60;;;;;;;4.94;100.00;96450.09;5038283;28;20221;-80
2023/01/10 03:42:20;;;;;;;3.33;0.90;;;;;;;4.89;100.00;96452.53;5040072;28;20203;-81
2023/01/10 03:44:57;;;;;;;2.83;0.80;;;;;;;4.76;100.00;96447.91;5037083;28;20202;-80
2023/01/10 03:47:30;;;;;;;2.30;1.13;;;;;;;4.83;100.00;96458.66;5045308;28;20234;-80
2023/01/10 03:50:02;;;;;;;1.50;0.80;;;;;;;4.80;100.00;96451.84;5039592;28;20211;-80
2023/01/10 03:52:32;;;;;;;1.40;0.70;;;;;;;5.01;99.52;96466.22;5050350;28;20219;-80
2023/01/10 03:55:01;;;;;;;1.70;0.87;;;;;;;5.13;99.98;96462.81;5045444;28;20221;-80
2023/01/10 03:57:28;;;;;;;1.70;0.83;;;;;;;5.11;100.00;96456.00;5044455;28;20209;-80
2023/01/10 03:59:57;;;;;;;2.23;1.00;;;;;;;5.07;100.00;96463.59;5041712;28;20209;-81
2023/01/10 04:02:27;;;;;;;2.47;0.77;;;;;;;4.89;100.00;96472.09;5038705;28;20202;-81
2023/01/10 04:04:54;;;;;;;3.30;0.80;;;;;;;4.86;100.00;96468.97;5042463;28;20274;-81
2023/01/10 04:07:22;;;;;;;1.23;0.70;;;;;;;4.86;100.00;96485.00;5046351;28;20203;-81
2023/01/10 04:09:49;;;;;;;3.47;0.90;;;;;;;4.85;100.00;96478.81;5036107;28;20226;-81
2023/01/10 04:12:16;;;;;;;2.67;0.90;;;;;;;5.00;100.00;96488.66;5035441;28;20255;-81
2023/01/10 04:14:45;;;;;;;1.67;0.90;;;;;;;5.04;100.00;96488.06;5043888;28;20198;-80
2023/01/10 04:17:13;;;;;;;0.60;0.60;;;;;;;5.09;100.00;96491.00;5045478;28;20217;-80
2023/01/10 04:19:40;;;;;;;6.30;2.03;;;;;;;5.07;100.00;96501.06;5040262;28;20281;-81
2023/01/10 04:22:08;;;;;;;4.63;1.00;;;;;;;5.14;100.00;96498.44;5035523;28;20214;-80
2023/01/10 04:24:36;;;;;;;3.43;0.90;;;;;;;5.14;100.00;96496.59;5035496;28;20242;-81
2023/01/10 04:27:06;;;;;;;3.80;1.30;;;;;;;5.14;100.00;96507.31;5042390;28;20224;-81
2023/01/10 04:29:33;;;;;;;1.13;0.90;;;;;;;5.15;100.00;96522.34;5038788;28;20202;-80
2023/01/10 04:32:00;;;;;;;1.83;0.93;;;;;;;5.25;100.00;96528.22;5031599;28;20198;-80
2023/01/10 04:34:27;;;;;;;1.13;0.70;;;;;;;5.13;100.00;96529.75;5034880;28;20194;-80
2023/01/10 04:36:54;;;;;;;1.27;0.87;;;;;;;5.13;99.20;96545.78;5029005;28;20239;-80
2023/01/10 04:39:21;;;;;;;2.00;0.70;;;;;;;5.22;97.40;96533.94;5037828;28;20255;-80
2023/01/10 04:41:50;;;;;;;2.20;0.90;;;;;;;5.30;100.00;96549.03;5043230;28;20238;-80
2023/01/10 04:44:17;;;;;;;3.30;1.10;;;;;;;5.25;99.29;96554.16;5045141;28;20199;-81
2023/01/10 04:46:44;;;;;;;4.63;1.07;;;;;;;5.24;96.46;96558.69;5045483;28;20206;-81
2023/01/10 04:49:11;;;;;;;3.10;1.00;;;;;;;5.24;96.11;96568.56;5047921;28;20335;-80
2023/01/10 04:51:38;;;;;;;5.43;1.07;;;;;;;5.28;95.75;96575.16;5039223;28;20210;-80
2023/01/10 04:54:05;;;;;;;0.70;0.70;;;;;;;5.22;97.01;96575.94;5031255;28;20202;-80
2023/01/10 04:56:32;;;;;;;0.83;0.80;;;;;;;5.12;97.45;96570.06;5046098;28;20206;-80
2023/01/10 04:59:01;;;;;;;2.83;1.00;;;;;;;5.10;100.00;96583.66;5037465;28;20207;-80
2023/01/10 05:01:28;;;;;;;2.00;0.80;;;;;;;5.11;99.29;96585.31;5048561;28;20202;-80
2023/01/10 05:03:56;;;;;;;0.70;0.70;;;;;;;5.10;100.00;96589.03;5047213;28;20212;-81
2023/01/10 05:06:24;;;;;;;4.97;2.87;;;;;;;5.01;100.00;96602.72;5047618;28;20217;-80
2023/01/10 05:08:51;;;;;;;4.30;2.30;;;;;;;4.89;100.00;96586.31;5049167;28;20207;-80
2023/01/10 05:11:18;;;;;;;4.47;2.80;;;;;;;4.69;100.00;96588.75;5048373;28;20344;-80
2023/01/10 05:13:45;;;;;;;3.87;2.70;;;;;;;4.68;100.00;96602.34;5044139;28;20207;-80
2023/01/10 05:16:13;;;;;;;2.67;1.17;;;;;;;4.61;100.00;96604.91;5053771;28;20205;-81
2023/01/10 05:18:40;;;;;;;3.57;1.40;;;;;;;4.55;100.00;96594.97;5048481;28;20206;-81
2023/01/10 05:21:09;;;;;;;2.00;1.00;;;;;;;4.74;100.00;96620.31;5040892;28;20203;-81
2023/01/10 05:23:37;;;;;;;3.40;0.90;;;;;;;4.98;94.28;96638.69;5047889;28;20203;-80
2023/01/10 05:26:09;;;;;;;3.07;1.00;;;;;;;5.16;92.81;96641.78;5045462;28;20218;-80
2023/01/10 05:28:36;;;;;;;5.30;1.90;;;;;;;5.22;93.37;96630.31;5047473;28;20202;-80
2023/01/10 05:31:06;;;;;;;2.00;0.90;;;;;;;5.18;95.01;96633.56;5043947;28;20215;-80
2023/01/10 05:33:34;;;;;;;3.27;1.10;;;;;;;5.21;92.02;96650.06;5041131;28;20201;-80
2023/01/10 05:36:01;;;;;;;2.17;1.40;;;;;;;5.24;94.42;96656.91;5045778;28;20229;-80
2023/01/10 05:38:29;;;;;;;1.70;0.93;;;;;;;5.21;94.42;96662.63;5040202;28;20253;-80
2023/01/10 05:40:57;;;;;;;3.23;1.27;;;;;;;5.17;91.70;96669.38;5042491;28;20202;-80
2023/01/10 05:43:25;;;;;;;4.90;1.27;;;;;;;5.09;96.16;96673.00;5048336;28;20207;-80
2023/01/10 05:45:52;;;;;;;3.63;1.00;;;;;;;5.06;92.46;96672.53;5045831;28;20211;-80
2023/01/10 05:48:19;;;;;;;3.47;1.17;;;;;;;5.17;91.53;96690.81;5050367;28;20213;-80
2023/01/10 05:50:49;;;;;;;3.50;1.10;;;;;;;5.16;92.71;96700.69;5049796;28;20214;-81
2023/01/10 05:53:17;;;;;;;2.43;1.17;;;;;;;5.16;89.57;96684.63;5049600;28;20203;-80
2023/01/10 05:55:44;;;;;;;2.13;1.20;;;;;;;5.21;93.54;96703.63;5053120;28;20201;-80
2023/01/10 05:58:11;;;;;;;4.47;1.40;;;;;;;5.17;90.39;96698.84;5041615;28;20284;-80
2023/01/10 06:00:39;;;;;;;4.07;0.93;;;;;;;5.23;86.59;96690.88;5051178;28;20210;-83
2023/01/10 06:03:06;;;;;;;2.93;1.10;;;;;;;5.25;90.65;96712.94;5048533;28;20210;-82
2023/01/10 06:05:33;;;;;;;0.70;0.70;;;;;;;5.19;94.34;96708.31;5046014;28;20199;-83
2023/01/10 06:08:02;;;;;;;3.70;0.90;;;;;;;5.05;95.57;96703.84;5042369;28;20194;-82
2023/01/10 06:10:29;;;;;;;4.53;1.17;;;;;;;5.11;96.52;96720.97;5047470;28;20222;-80
2023/01/10 06:12:56;;;;;;;2.37;0.90;;;;;;;4.98;98.05;96718.97;5052835;28;20256;-80
2023/01/10 06:15:23;;;;;;;1.60;0.97;;;;;;;4.96;99.87;96729.03;5049570;28;20236;-80
2023/01/10 06:17:50;;;;;;;2.07;1.10;;;;;;;4.81;99.39;96726.38;5042261;28;20202;-80
2023/01/10 06:20:17;;;;;;;1.90;1.10;;;;;;;4.86;99.29;96744.53;5049328;28;20213;-80
2023/01/10 06:22:44;;;;;;;4.23;1.00;;;;;;;4.79;97.74;96730.25;5044269;28;20260;-80
2023/01/10 06:25:13;;;;;;;7.40;1.30;;;;;;;4.85;96.82;96750.91;5048464;28;20230;-80
2023/01/10 06:27:41;;;;;;;3.07;1.00;;;;;;;4.79;97.69;96748.97;5045454;28;20211;-81
2023/01/10 06:30:10;;;;;;;2.23;1.13;;;;;;;4.89;98.39;96768.25;5046022;28;20212;-80
2023/01/10 06:32:37;;;;;;;1.77;0.97;;;;;;;4.87;98.55;96764.94;5033805;28;20210;-80
2023/01/10 06:35:05;;;;;;;17.07;13.27;;;;;;;4.85;99.60;96761.59;5048217;28;20194;-81
2023/01/10 06:37:33;;;;;;;9.03;5.73;;;;;;;4.77;98.33;96759.84;5047054;28;20241;-81
2023/01/10 06:40:00;;;;;;;2.80;2.13;;;;;;;4.86;100.00;96779.31;5044496;28;20203;-80
2023/01/10 06:42:28;;;;;;;1.70;1.07;;;;;;;4.81;99.60;96781.72;5044323;28;20203;-80
2023/01/10 06:44:55;;;;;;;3.83;1.10;;;;;;;4.84;99.72;96787.56;5046326;28;20205;-81
2023/01/10 06:47:22;;;;;;;2.07;1.40;;;;;;;4.90;98.88;96788.66;5049783;28;20202;-81
2023/01/10 06:49:49;;;;;;;1.77;0.90;;;;;;;4.86;100.00;96776.63;5050731;28;20206;-81
2023/01/10 06:52:16;;;;;;;3.87;1.60;;;;;;;4.81;98.19;96776.38;5047718;28;20305;-83
2023/01/10 06:54:43;;;;;;;2.77;1.47;;;;;;;4.87;97.57;96791.69;5039008;28;20307;-80
2023/01/10 06:57:10;;;;;;;5.30;2.00;;;;;;;4.83;96.93;96787.72;5047970;28;20199;-80
2023/01/10 06:59:38;;;;;;;2.30;1.10;;;;;;;4.84;96.91;96792.91;5040312;28;20275;-80
2023/01/10 07:02:11;;;;;;;1.07;0.90;;;;;;;4.85;96.55;96799.06;5045471;28;20216;-80
2023/01/10 07:04:38;;;;;;;2.30;1.20;;;;;;;4.91;95.92;96809.06;5042022;28;20218;-80
2023/01/10 07:07:05;;;;;;;5.37;2.27;;;;;;;4.95;95.71;96813.00;5041276;28;20218;-81
2023/01/10 07:09:32;;;;;;;2.53;1.40;;;;;;;4.99;96.22;96817.00;5046828;28;20221;-81
2023/01/10 07:11:59;;;;;;;4.60;1.30;;;;;;;4.94;96.59;96816.69;5042749;28;20219;-80
2023/01/10 07:14:26;;;;;;;3.43;1.13;;;;;;;4.93;96.98;96823.88;5047125;28;20241;-81
2023/01/10 07:16:55;;;;;;;2.90;1.10;;;;;;;4.92;98.16;96821.41;5046706;28;20220;-81
2023/01/10 07:19:22;;;;;;;4.23;2.13;;;;;;;4.91;99.63;96825.94;5040268;28;20215;-80
2023/01/10 07:21:49;;;;;;;5.27;1.37;;;;;;;4.86;99.75;96833.66;5037630;28;20299;-81
2023/01/10 07:24:16;;;;;;;3.77;1.70;;;;;;;4.80;99.97;96833.56;5045259;28;20308;-80
2023/01/10 07:26:43;;;;;;;7.03;5.10;;;;;;;4.81;98.76;96843.25;5042617;28;20210;-80
2023/01/10 07:29:10;;;;;;;1.80;1.17;;;;;;;5.03;97.96;96855.75;5059896;28;20207;-81
2023/01/10 07:31:37;;;;;;;2.57;1.30;;;;;;;4.93;97.52;96844.50;5044511;28;20225;-81
2023/01/10 07:34:07;;;;;;;3.37;1.70;;;;;;;4.91;97.00;96846.50;5036138;28;20206;-80
2023/01/10 07:36:35;;;;;;;4.40;2.20;;;;;;;4.89;98.00;96854.72;5038708;28;20217;-81
2023/01/10 07:39:02;;;;;;;2.50;1.50;;;;;;;4.94;99.17;96856.84;5033403;28;20277;-81
2023/01/10 07:41:29;;;;;;;2.40;1.13;;;;;;;4.89;99.91;96846.69;5048985;28;20205;-81
2023/01/10 07:43:59;;;;;;;1.10;1.00;;;;;;;4.86;100.00;96864.94;5042502;28;20264;-81
2023/01/10 07:46:26;;;;;;;6.30;1.60;;;;;;;4.77;100.00;96861.50;5040476;28;20206;-80
2023/01/10 07:48:53;;;;;;;3.07;0.80;;;;;;;4.72;100.00;96865.75;5047727;28;20212;-81
2023/01/10 07:51:21;;;;;;;1.00;0.83;;;;;;;4.72;100.00;96869.25;5046699;28;20225;-80
2023/01/10 07:53:48;;;;;;;3.23;1.87;;;;;;;4.80;100.00;96881.72;5046095;28;20194;-80
2023/01/10 07:56:15;;;;;;;5.73;3.13;;;;;;;4.79;100.00;96880.06;5043466;28;20198;-80
2023/01/10 07:58:45;;;;;;;1.50;1.00;;;;;;;4.74;100.00;96879.78;5050697;28;20202;-81
2023/01/10 08:01:12;;;;;;;3.13;1.00;;;;;;;4.83;100.00;96903.63;5049107;28;20202;-80
2023/01/10 08:03:39;;;;;;;2.33;0.90;;;;;;;4.83;100.00;96905.47;5044735;28;20268;-80
2023/01/10 08:06:10;;;;;;;1.90;1.00;;;;;;;4.81;100.00;96907.47;5041538;28;20217;-81
2023/01/10 08:08:39;;;;;;;2.67;0.90;;;;;;;4.87;100.00;96904.06;5033212;28;20221;-81
2023/01/10 08:11:06;;;;;;;1.77;1.00;;;;;;;4.86;100.00;96892.53;5042936;28;20339;-81
2023/01/10 08:13:34;;;;;;;1.00;0.90;;;;;;;4.93;100.00;96908.72;5043751;28;20202;-81
2023/01/10 08:16:05;;;;;;;1.50;0.93;;;;;;;4.85;100.00;96908.75;5047938;28;20206;-81
2023/01/10 08:18:32;;;;;;;1.73;0.80;;;;;;;4.91;100.00;96910.75;5040726;28;20210;-81
2023/01/10 08:20:59;;;;;;;2.20;1.07;;;;;;;4.92;100.00;96902.53;5054584;28;20210;-81
2023/01/10 08:23:27;;;;;;;4.57;1.00;;;;;;;5.06;98.31;96913.44;5039773;28;20256;-82
2023/01/10 08:25:58;;;;;;;3.03;0.90;;;;;;;5.16;96.04;96914.84;5047541;28;20301;-81
2023/01/10 08:28:25;;;;;;;4.30;1.77;;;;;;;5.14;97.98;96924.91;5041789;28;20206;-80
2023/01/10 08:30:54;;;;;;;3.07;1.40;;;;;;;5.21;100.00;96933.03;5039772;28;20198;-80
2023/01/10 08:33:22;;;;;;;2.27;1.40;;;;;;;5.13;100.00;96930.41;5040619;28;20220;-80
2023/01/10 08:35:50;;;;;;;2.97;1.40;;;;;;;5.17;100.00;96935.25;5043753;28;20202;-81
2023/01/10 08:38:17;;;;;;;2.50;1.40;;;;;;;5.16;100.00;96955.00;5043431;28;20204;-81
2023/01/10 08:40:44;;;;;;;3.57;2.33;;;;;;;5.17;100.00;96958.50;5048979;28;20203;-81
2023/01/10 08:43:13;;;;;;;1.53;1.13;;;;;;;5.07;100.00;96974.81;5035334;28;20195;-81
2023/01/10 08:45:41;;;;;;;3.30;1.10;;;;;;;5.11;100.00;96969.91;5052364;28;20194;-81
2023/01/10 08:48:09;;;;;;;3.50;2.00;;;;;;;5.13;100.00;96982.13;5047292;28;20195;-81
2023/01/10 08:50:36;;;;;;;4.07;1.50;;;;;;;5.14;100.00;96975.75;5045240;28;20211;-81
2023/01/10 08:53:04;;;;;;;3.03;1.50;;;;;;;5.16;100.00;96968.38;5046814;28;20315;-81
2023/01/10 08:55:34;;;;;;;4.07;1.70;;;;;;;5.12;100.00;96982.28;5040188;28;20198;-82
2023/01/10 08:58:01;;;;;;;6.93;2.07;;;;;;;5.17;100.00;96983.44;5037857;28;20225;-81
2023/01/10 09:00:30;;;;;;;4.13;2.57;;;;;;;5.22;100.00;96998.94;5043733;28;20218;-81
2023/01/10 09:02:57;;;;;;;7.00;2.60;;;;;;;5.29;100.00;96999.88;5045906;28;20233;-81
2023/01/10 09:05:25;;;;;;;3.33;2.23;;;;;;;5.21;100.00;96986.56;5049734;28;20194;-86
2023/01/10 09:07:52;;;;;;;3.97;1.90;;;;;;;5.16;100.00;96999.69;5040367;28;20194;-84
2023/01/10 09:10:20;;;;;;;4.40;1.70;;;;;;;5.09;100.00;96988.03;5037534;28;20222;-84
2023/01/10 09:12:58;;;;;;;2.40;1.40;;;;;;;5.21;100.00;96998.09;5042170;28;20226;-85
2023/01/10 09:15:27;;;;;;;2.50;1.37;;;;;;;5.16;100.00;97011.22;5045621;28;20210;-83
2023/01/10 09:17:57;;;;;;;1.70;1.13;;;;;;;5.17;100.00;97001.34;5043372;28;20209;-83
2023/01/10 09:20:25;;;;;;;1.73;1.30;;;;;;;5.31;100.00;97004.06;5050663;28;20206;-84
2023/01/10 09:22:52;;;;;;;3.03;1.40;;;;;;;5.37;100.00;97007.00;5044732;28;20202;-85
2023/01/10 09:25:20;;;;;;;3.23;1.37;;;;;;;5.46;100.00;97011.28;5044545;28;20288;-84
2023/01/10 09:27:47;;;;;;;2.00;1.63;;;;;;;5.51;100.00;97011.56;5044171;28;20214;-84
2023/01/10 09:30:14;;;;;;;4.27;2.00;;;;;;;5.55;100.00;97007.50;5041816;28;20249;-84
2023/01/10 09:32:41;;;;;;;1.87;1.50;;;;;;;5.66;100.00;97013.25;5046392;28;20229;-86
2023/01/10 09:35:10;;;;;;;3.27;1.57;;;;;;;5.73;100.00;97016.03;5044120;28;20206;-84
2023/01/10 09:37:37;;;;;;;1.87;1.20;;;;;;;5.84;100.00;97023.63;5043398;28;20198;-86
2023/01/10 09:40:06;;;;;;;5.47;1.20;;;;;;;5.86;100.00;97023.44;5039059;28;20203;-86
2023/01/10 09:43:01;;;;;;;3.97;1.00;;;;;;;5.91;98.78;97021.88;5037862;28;20214;-85
2023/01/10 09:45:36;;;;;;;4.10;1.10;;;;;;;5.94;95.38;97016.16;5043393;28;20214;-85
2023/01/10 09:48:06;;;;;;;3.90;1.10;;;;;;;6.02;96.02;97026.81;5034876;28;20211;-82
2023/01/10 09:50:51;;;;;;;3.43;1.00;;;;;;;6.26;96.42;97035.56;5028964;28;20215;-84
2023/01/10 09:53:22;;;;;;;1.93;0.90;;;;;;;6.17;90.50;97015.22;5036210;28;20223;-85
2023/01/10 09:55:54;;;;;;;2.23;1.20;;;;;;;6.32;91.49;97024.06;5047489;28;20213;-86
2023/01/10 09:58:26;;;;;;;3.37;1.20;;;;;;;6.36;90.41;97022.69;5045646;28;20300;-85
2023/01/10 10:00:58;;;;;;;2.33;1.10;;;;;;;6.36;90.43;97026.22;5033823;28;20211;-84
2023/01/10 10:03:32;;;;;;;1.87;1.10;;;;;;;6.51;89.78;97034.22;5039560;28;20292;-86
2023/01/10 10:06:02;;;;;;;2.23;1.10;;;;;;;6.60;87.97;97025.06;5043818;28;20214;-87
2023/01/10 10:08:30;;;;;;;0.80;0.80;;;;;;;6.67;88.46;97028.63;5049266;28;20229;-88
2023/01/10 10:11:23;;;;;;;1.37;0.97;;;;;;;6.82;85.76;97037.47;5052553;28;20230;-86
2023/01/10 10:14:00;;;;;;;2.30;0.90;;;;;;;6.79;83.27;97028.97;5037682;28;20202;-86
2023/01/10 10:16:37;;;;;;;1.30;0.80;;;;;;;6.89;85.96;97034.06;5042422;28;20213;-86
2023/01/10 10:19:13;;;;;;;1.10;0.90;;;;;;;6.93;84.49;97038.84;5044423;28;20205;-86
2023/01/10 10:21:51;;;;;;;1.23;0.80;;;;;;;7.04;82.08;97048.25;5046551;28;20210;-85
2023/01/10 10:24:29;;;;;;;2.97;1.00;;;;;;;7.12;81.47;97032.00;5054695;28;20241;-84
2023/01/10 10:26:58;;;;;;;4.90;1.23;;;;;;;7.21;83.42;97036.22;5047959;28;20202;-87
2023/01/10 10:30:04;;;;;;;1.40;0.70;;;;;;;7.33;81.26;97031.16;5052113;28;20267;-88
2023/01/10 10:32:51;;;;;;;1.40;0.80;;;;;;;7.53;79.13;97033.00;5050860;28;20229;-85
2023/01/10 10:35:26;;;;;;;3.80;1.03;;;;;;;7.50;79.06;97028.00;5043709;28;20276;-87
2023/01/10 10:37:58;;;;;;;1.20;0.93;;;;;;;7.54;78.51;97031.97;5045725;28;20269;-87
2023/01/10 10:40:36;;;;;;;6.27;1.67;;;;;;;7.64;78.25;97020.06;5046994;28;20222;-85
2023/01/10 10:43:14;;;;;;;2.93;0.90;;;;;;;7.55;77.59;97017.50;5041627;28;20206;-83
2023/01/10 10:45:46;;;;;;;1.23;1.10;;;;;;;7.39;78.97;97017.78;5042137;28;20217;-84
2023/01/10 10:48:16;;;;;;;1.40;0.90;;;;;;;7.32;78.80;97016.88;5046262;28;20269;-85
2023/01/10 10:50:53;;;;;;;2.60;1.10;;;;;;;7.24;79.42;97027.75;5044482;28;20217;-82
2023/01/10 10:53:21;;;;;;;1.07;0.97;;;;;;;7.00;79.84;97006.66;5048221;28;20225;-85
2023/01/10 10:55:49;;;;;;;3.80;1.00;;;;;;;6.91;80.40;97013.19;5046674;28;20229;-85
2023/01/10 10:58:18;;;;;;;4.03;1.20;;;;;;;7.11;82.26;97022.28;5034606;28;20202;-83
2023/01/10 11:00:46;;;;;;;3.07;1.30;;;;;;;7.36;81.70;97017.34;5045949;28;20228;-84
2023/01/10 11:03:27;;;;;;;2.40;1.40;;;;;;;7.62;80.37;97011.34;5048215;28;20212;-84
2023/01/10 11:05:55;;;;;;;3.53;1.30;;;;;;;7.75;80.63;97014.13;5047845;28;20206;-85
2023/01/10 11:08:24;;;;;;;2.73;1.10;;;;;;;7.85;79.03;97006.53;5048584;28;20234;-84
2023/01/10 11:10:54;;;;;;;5.07;1.40;;;;;;;8.14;78.07;97022.44;5044953;28;20223;-85
2023/01/10 11:13:35;;;;;;;3.67;1.10;;;;;;;7.97;80.88;97003.13;5040213;28;20298;-85
2023/01/10 11:16:05;;;;;;;2.33;1.20;;;;;;;7.87;82.87;97026.00;5046596;28;20240;-86
2023/01/10 11:18:33;;;;;;;2.63;1.40;;;;;;;7.70;84.08;97028.16;5047162;28;20229;-85
2023/01/10 11:21:03;;;;;;;2.33;1.20;;;;;;;7.53;86.51;97019.56;5043745;28;20198;-86
2023/01/10 11:23:49;;;;;;;2.27;1.20;;;;;;;7.86;85.01;97035.09;5036655;28;20205;-85
2023/01/10 11:26:25;;;;;;;1.77;1.10;;;;;;;7.96;82.45;97035.56;5046298;28;20214;-84
2023/01/10 11:29:03;;;;;;;1.93;1.23;;;;;;;7.75;82.81;97022.19;5034961;28;20213;-85
2023/01/10 11:31:31;;;;;;;1.60;1.13;;;;;;;7.50;84.26;97019.94;5042868;28;20276;-85
2023/01/10 11:33:59;;;;;;;3.07;1.37;;;;;;;7.35;84.83;97011.13;5043066;28;20613;-84
2023/01/10 11:36:26;;;;;;;1.27;1.07;;;;;;;7.34;84.08;97028.28;5033423;28;20210;-84
2023/01/10 11:39:03;;;;;;;1.80;1.30;;;;;;;7.38;83.52;97016.13;5039577;28;20218;-84
2023/01/10 11:41:33;;;;;;;2.53;1.17;;;;;;;7.91;81.17;97020.00;5047054;28;20261;-85
2023/01/10 11:44:21;;;;;;;2.73;1.23;;;;;;;8.50;78.21;97029.50;5034472;28;20213;-86
2023/01/10 11:46:50;;;;;;;2.90;1.60;;;;;;;8.54;77.53;97033.44;5044219;28;20210;-85
2023/01/10 11:49:25;;;;;;;2.53;1.20;;;;;;;8.18;77.79;97021.00;5042631;28;20213;-85
2023/01/10 11:51:58;;;;;;;1.57;1.40;;;;;;;8.16;82.34;97009.66;5032332;28;20198;-85
2023/01/10 11:54:28;;;;;;;1.77;1.30;;;;;;;8.48;79.76;97015.41;5045497;28;20209;-82
2023/01/10 11:56:59;;;;;;;1.47;1.03;;;;;;;8.29;79.81;97006.16;5038435;28;20294;-86
2023/01/10 11:59:27;;;;;;;2.17;1.10;;;;;;;7.99;82.52;97002.91;5045999;28;20214;-85